Time;durP1;ratioP1;P1;durP2;ratioP2;P2;SDS_P1;SDS_P2;PMS_P1;PMS_P2;Temp;Humidity;BMP_temperature;BMP_pressure;BME280_temperature;BME280_humidity;BME280_pressure;Samples;Min_cycle;Max_cycle;Signal;HPM_P1;HPM_P2
2022/08/26 00:00:04;;;;;;;31.15;17.45;;;;;;;;;;5047885;28;20057;-90
2022/08/26 00:02:30;;;;;;;27.77;17.38;;;;;;;;;;5050295;28;20465;-89
2022/08/26 00:04:56;;;;;;;28.92;18.42;;;;;;;;;;5047634;28;20529;-90
2022/08/26 00:07:22;;;;;;;25.48;16.83;;;;;;;;;;5051982;28;20036;-90
2022/08/26 00:09:48;;;;;;;22.15;17.20;;;;;;;;;;5063778;28;20037;-89
2022/08/26 00:12:14;;;;;;;28.45;18.00;;;;;;;;;;5048049;28;20052;-90
2022/08/26 00:14:40;;;;;;;31.95;19.02;;;;;;;;;;5050947;28;20053;-89
2022/08/26 00:17:06;;;;;;;23.58;17.48;;;;;;;;;;5048880;28;20562;-90
2022/08/26 00:19:32;;;;;;;25.75;17.85;;;;;;;;;;5057898;28;20088;-90
2022/08/26 00:21:58;;;;;;;29.65;16.13;;;;;;;;;;5051235;28;20063;-89
2022/08/26 00:24:24;;;;;;;22.05;15.55;;;;;;;;;;5049476;28;20037;-88
2022/08/26 00:26:51;;;;;;;20.80;14.40;;;;;;;;;;5049051;28;20048;-88
2022/08/26 00:29:17;;;;;;;29.80;16.70;;;;;;;;;;5048494;28;20041;-89
2022/08/26 00:31:43;;;;;;;23.63;14.52;;;;;;;;;;5053525;28;20182;-89
2022/08/26 00:34:09;;;;;;;21.95;15.38;;;;;;;;;;5053899;28;20131;-89
2022/08/26 00:36:36;;;;;;;27.17;15.40;;;;;;;;;;5050001;28;20049;-89
2022/08/26 00:39:02;;;;;;;21.23;14.65;;;;;;;;;;5055518;28;20615;-89
2022/08/26 00:41:29;;;;;;;23.13;15.70;;;;;;;;;;5047967;28;20033;-89
2022/08/26 00:43:55;;;;;;;21.70;15.20;;;;;;;;;;5048010;28;20394;-89
2022/08/26 00:46:23;;;;;;;24.65;16.10;;;;;;;;;;5050196;28;20037;-88
2022/08/26 00:48:51;;;;;;;21.35;15.55;;;;;;;;;;5049589;28;20052;-90
2022/08/26 00:51:22;;;;;;;22.88;15.98;;;;;;;;;;5048557;28;20043;-89
2022/08/26 00:53:51;;;;;;;23.42;14.65;;;;;;;;;;5048109;28;20045;-89
2022/08/26 00:56:20;;;;;;;22.55;13.13;;;;;;;;;;5048439;28;20041;-88
2022/08/26 00:58:46;;;;;;;23.17;12.52;;;;;;;;;;5031827;28;20444;-89
2022/08/26 01:01:13;;;;;;;20.55;12.77;;;;;;;;;;5047654;28;20069;-89
2022/08/26 01:03:39;;;;;;;23.25;14.02;;;;;;;;;;5047841;28;20049;-89
2022/08/26 01:06:07;;;;;;;23.88;12.75;;;;;;;;;;5040044;28;20422;-89
2022/08/26 01:08:33;;;;;;;23.30;12.60;;;;;;;;;;5051908;28;20079;-90
2022/08/26 01:11:00;;;;;;;24.10;13.38;;;;;;;;;;5049709;28;20534;-89
2022/08/26 01:13:27;;;;;;;19.45;13.02;;;;;;;;;;5050010;28;20067;-90
2022/08/26 01:15:55;;;;;;;23.58;13.70;;;;;;;;;;5049762;28;20045;-89
2022/08/26 01:18:21;;;;;;;25.77;14.02;;;;;;;;;;5049158;28;20047;-89
2022/08/26 01:21:06;;;;;;;21.23;12.25;;;;;;;;;;5046255;28;20049;-88
2022/08/26 01:23:34;;;;;;;26.85;12.13;;;;;;;;;;5048387;28;20047;-89
2022/08/26 01:26:04;;;;;;;17.02;10.57;;;;;;;;;;5050153;28;20049;-88
2022/08/26 01:28:32;;;;;;;25.23;11.32;;;;;;;;;;5048523;28;20044;-88
2022/08/26 01:30:59;;;;;;;17.92;10.82;;;;;;;;;;5046439;28;20033;-89
2022/08/26 01:33:28;;;;;;;20.05;11.38;;;;;;;;;;5047428;28;20052;-89
2022/08/26 01:35:54;;;;;;;18.13;10.00;;;;;;;;;;5049077;28;20444;-88
2022/08/26 01:38:20;;;;;;;17.67;10.80;;;;;;;;;;5035863;28;20466;-89
2022/08/26 01:40:47;;;;;;;18.30;10.57;;;;;;;;;;5054539;28;20052;-89
2022/08/26 01:43:18;;;;;;;17.77;10.05;;;;;;;;;;5053398;28;20054;-89
2022/08/26 01:45:45;;;;;;;18.02;9.95;;;;;;;;;;5054842;28;20045;-87
2022/08/26 01:48:13;;;;;;;16.67;10.88;;;;;;;;;;5050880;28;20041;-89
2022/08/26 01:50:39;;;;;;;18.50;10.30;;;;;;;;;;5053026;28;20060;-89
2022/08/26 01:53:07;;;;;;;17.13;10.48;;;;;;;;;;5056635;28;20198;-89
2022/08/26 01:55:35;;;;;;;18.63;10.48;;;;;;;;;;5034351;28;20049;-89
2022/08/26 01:58:03;;;;;;;20.42;10.18;;;;;;;;;;5050974;28;20114;-88
2022/08/26 02:00:29;;;;;;;15.95;10.18;;;;;;;;;;5031361;28;20402;-89
2022/08/26 02:03:15;;;;;;;18.70;10.18;;;;;;;;;;5050653;28;20061;-88
2022/08/26 02:05:43;;;;;;;14.68;9.77;;;;;;;;;;5052838;28;20344;-90
2022/08/26 02:08:10;;;;;;;17.92;9.55;;;;;;;;;;5050543;28;20155;-90
2022/08/26 02:10:36;;;;;;;16.77;9.45;;;;;;;;;;5050788;28;20133;-89
2022/08/26 02:13:02;;;;;;;20.83;8.48;;;;;;;;;;5051348;28;20055;-89
2022/08/26 02:15:29;;;;;;;13.13;8.50;;;;;;;;;;5050183;28;20051;-89
2022/08/26 02:17:56;;;;;;;12.25;7.00;;;;;;;;;;5052059;28;20080;-89
2022/08/26 02:20:22;;;;;;;16.42;6.82;;;;;;;;;;5049433;28;20048;-89
2022/08/26 02:22:48;;;;;;;15.25;6.72;;;;;;;;;;5051920;28;20048;-89
2022/08/26 02:25:14;;;;;;;10.57;6.10;;;;;;;;;;5052317;28;20588;-89
2022/08/26 02:27:40;;;;;;;13.60;6.25;;;;;;;;;;5052810;28;20077;-89
2022/08/26 02:30:06;;;;;;;12.38;6.07;;;;;;;;;;5048329;28;20041;-89
2022/08/26 02:32:32;;;;;;;19.00;7.00;;;;;;;;;;5049126;28;20517;-89
2022/08/26 02:34:59;;;;;;;15.38;5.97;;;;;;;;;;5051196;28;20041;-88
2022/08/26 02:37:27;;;;;;;12.85;5.90;;;;;;;;;;5051347;28;21620;-88
2022/08/26 02:39:53;;;;;;;15.60;5.90;;;;;;;;;;5050238;28;20505;-88
2022/08/26 02:42:19;;;;;;;16.15;6.05;;;;;;;;;;5047650;28;20547;-90
2022/08/26 02:44:45;;;;;;;15.32;5.85;;;;;;;;;;5047871;28;20140;-90
2022/08/26 02:47:12;;;;;;;13.20;6.05;;;;;;;;;;5049714;28;20037;-89
2022/08/26 02:49:39;;;;;;;12.73;5.90;;;;;;;;;;5050820;28;20044;-89
2022/08/26 02:52:05;;;;;;;15.40;6.10;;;;;;;;;;5051052;28;20120;-90
2022/08/26 02:54:31;;;;;;;12.85;5.63;;;;;;;;;;5051314;28;20182;-89
2022/08/26 02:56:57;;;;;;;14.60;5.78;;;;;;;;;;5063725;28;20064;-89
2022/08/26 02:59:23;;;;;;;12.02;5.72;;;;;;;;;;5056725;28;20053;-89
2022/08/26 03:01:49;;;;;;;15.05;5.70;;;;;;;;;;5085342;28;20041;-90
2022/08/26 03:04:15;;;;;;;14.52;6.72;;;;;;;;;;5066226;28;20046;-90
2022/08/26 03:06:41;;;;;;;18.05;6.75;;;;;;;;;;5054224;28;20479;-90
2022/08/26 03:09:08;;;;;;;18.25;6.97;;;;;;;;;;5053024;28;20128;-90
2022/08/26 03:11:34;;;;;;;15.68;6.20;;;;;;;;;;5051047;28;20362;-90
2022/08/26 03:14:00;;;;;;;14.05;5.93;;;;;;;;;;5051293;28;20051;-90
2022/08/26 03:16:26;;;;;;;12.98;5.78;;;;;;;;;;5047169;28;20076;-89
2022/08/26 03:18:53;;;;;;;13.52;5.68;;;;;;;;;;5050480;28;20045;-90
2022/08/26 03:21:19;;;;;;;14.20;5.55;;;;;;;;;;5050156;28;20049;-88
2022/08/26 03:23:46;;;;;;;20.33;6.35;;;;;;;;;;5049206;28;20033;-89
2022/08/26 03:26:13;;;;;;;17.58;4.97;;;;;;;;;;5048883;28;20040;-88
2022/08/26 03:30:38;;;;;;;12.75;5.40;;;;;;;;;;5047253;28;20380;-88
2022/08/26 03:31:25;;;;;;;;;;;;;;;;;;5050987;28;20142;-88
2022/08/26 03:33:51;;;;;;;16.85;5.65;;;;;;;;;;5050241;28;20011;-89
2022/08/26 03:36:17;;;;;;;17.48;4.65;;;;;;;;;;5050917;28;20037;-88
2022/08/26 03:38:44;;;;;;;11.82;4.18;;;;;;;;;;5051083;28;20068;-89
2022/08/26 03:41:11;;;;;;;20.08;4.93;;;;;;;;;;5049235;28;20045;-88
2022/08/26 03:43:37;;;;;;;12.20;4.30;;;;;;;;;;5049008;28;20080;-88
2022/08/26 03:46:07;;;;;;;10.68;3.88;;;;;;;;;;5049106;28;20052;-89
2022/08/26 03:48:33;;;;;;;14.18;4.05;;;;;;;;;;5049155;28;20041;-89
2022/08/26 03:51:00;;;;;;;13.43;4.30;;;;;;;;;;5048887;28;20045;-89
2022/08/26 03:53:26;;;;;;;13.90;4.53;;;;;;;;;;5049927;28;20124;-90
2022/08/26 03:55:52;;;;;;;11.82;4.28;;;;;;;;;;5050681;28;20403;-90
2022/08/26 03:58:19;;;;;;;8.38;3.65;;;;;;;;;;5048408;28;20040;-89
2022/08/26 04:00:46;;;;;;;9.75;3.58;;;;;;;;;;5049662;28;20033;-90
2022/08/26 04:03:56;;;;;;;11.50;3.10;;;;;;;;;;5032022;28;20045;-89
2022/08/26 04:05:58;;;;;;;11.40;3.80;;;;;;;;;;5052743;28;20106;-89
2022/08/26 04:08:24;;;;;;;11.95;3.90;;;;;;;;;;5050580;28;20150;-90
2022/08/26 04:10:50;;;;;;;11.45;3.58;;;;;;;;;;5049257;28;20506;-89
2022/08/26 04:13:16;;;;;;;11.63;3.15;;;;;;;;;;5047425;28;20135;-89
2022/08/26 04:15:42;;;;;;;10.70;3.60;;;;;;;;;;5039072;28;20127;-89
2022/08/26 04:18:08;;;;;;;10.27;3.35;;;;;;;;;;5046011;28;20051;-89
2022/08/26 04:20:34;;;;;;;12.55;3.45;;;;;;;;;;5048749;28;20037;-89
2022/08/26 04:23:00;;;;;;;8.88;3.70;;;;;;;;;;5046790;28;20055;-90
2022/08/26 04:25:26;;;;;;;9.82;3.47;;;;;;;;;;5032077;28;20037;-88
2022/08/26 04:27:52;;;;;;;9.43;3.97;;;;;;;;;;5049772;28;20386;-89
2022/08/26 04:30:18;;;;;;;11.27;4.15;;;;;;;;;;5047434;28;20033;-88
2022/08/26 04:32:44;;;;;;;11.32;4.40;;;;;;;;;;5050681;28;20045;-89
2022/08/26 04:35:12;;;;;;;10.45;4.00;;;;;;;;;;5049794;28;20522;-88
2022/08/26 04:37:38;;;;;;;8.52;3.58;;;;;;;;;;5049140;28;20045;-89
2022/08/26 04:40:05;;;;;;;8.30;3.53;;;;;;;;;;5045635;28;20041;-89
2022/08/26 04:42:32;;;;;;;12.77;4.05;;;;;;;;;;5049571;28;20057;-88
2022/08/26 04:44:58;;;;;;;10.35;3.83;;;;;;;;;;5048351;28;20037;-88
2022/08/26 04:47:24;;;;;;;11.18;4.13;;;;;;;;;;5048692;28;20095;-90
2022/08/26 04:49:54;;;;;;;9.77;3.90;;;;;;;;;;5051203;28;20032;-90
2022/08/26 04:52:20;;;;;;;13.35;3.70;;;;;;;;;;5061345;28;20044;-90
2022/08/26 04:54:46;;;;;;;6.60;3.58;;;;;;;;;;5055472;28;20132;-89
2022/08/26 04:57:12;;;;;;;11.10;3.38;;;;;;;;;;5048537;28;20347;-90
2022/08/26 04:59:39;;;;;;;10.25;4.20;;;;;;;;;;5047027;28;20087;-91
2022/08/26 05:02:05;;;;;;;10.80;3.80;;;;;;;;;;5032024;28;20033;-90
2022/08/26 05:04:31;;;;;;;13.38;3.80;;;;;;;;;;5056430;28;20129;-90
2022/08/26 05:06:57;;;;;;;10.70;4.25;;;;;;;;;;5049522;28;20033;-88
2022/08/26 05:09:24;;;;;;;8.57;3.47;;;;;;;;;;5045528;28;20077;-88
2022/08/26 05:11:50;;;;;;;7.60;2.70;;;;;;;;;;5053234;28;20045;-91
2022/08/26 05:14:16;;;;;;;7.93;3.20;;;;;;;;;;5050645;28;20057;-89
2022/08/26 05:16:43;;;;;;;13.18;3.75;;;;;;;;;;5048793;28;20503;-90
2022/08/26 05:19:10;;;;;;;10.88;3.33;;;;;;;;;;5046619;28;20041;-90
2022/08/26 05:21:37;;;;;;;9.85;3.40;;;;;;;;;;5053026;28;20056;-88
2022/08/26 05:24:04;;;;;;;9.65;3.13;;;;;;;;;;5034130;28;20072;-88
2022/08/26 05:26:31;;;;;;;7.70;2.85;;;;;;;;;;5059689;28;20044;-90
2022/08/26 05:28:57;;;;;;;14.20;4.00;;;;;;;;;;5058315;28;20076;-86
2022/08/26 05:31:25;;;;;;;7.85;3.30;;;;;;;;;;5064426;28;20081;-88
2022/08/26 05:33:51;;;;;;;7.22;3.15;;;;;;;;;;5063676;28;20062;-91
2022/08/26 05:36:19;;;;;;;11.63;3.25;;;;;;;;;;5072746;28;20175;-89
2022/08/26 05:38:45;;;;;;;11.38;3.28;;;;;;;;;;5055525;28;20048;-91
2022/08/26 05:41:27;;;;;;;14.52;4.10;;;;;;;;;;5058740;28;20044;-89
2022/08/26 05:43:54;;;;;;;12.05;3.97;;;;;;;;;;5053011;28;20436;-93
2022/08/26 05:46:20;;;;;;;20.10;4.47;;;;;;;;;;5063644;28;20064;-95
2022/08/26 05:48:46;;;;;;;14.68;4.05;;;;;;;;;;5071165;28;20044;-96
2022/08/26 05:51:12;;;;;;;15.10;3.72;;;;;;;;;;5057164;28;20399;-95
2022/08/26 05:53:39;;;;;;;12.07;3.67;;;;;;;;;;5061296;28;20033;-96
2022/08/26 05:56:06;;;;;;;26.77;4.60;;;;;;;;;;5064349;28;20045;-96
2022/08/26 06:37:56;;;;;;;8.57;3.25;;;;;;;;;;5988633;22;20056;-80
2022/08/26 06:40:23;;;;;;;7.22;2.80;;;;;;;;;;5011609;28;20089;-82
2022/08/26 06:42:49;;;;;;;9.82;2.72;;;;;;;;;;4996150;28;20100;-82
2022/08/26 06:45:15;;;;;;;13.38;3.33;;;;;;;;;;4994973;28;20510;-82
2022/08/26 06:47:41;;;;;;;9.00;2.75;;;;;;;;;;5012073;28;20049;-82
2022/08/26 06:50:07;;;;;;;13.15;3.30;;;;;;;;;;4995208;28;20046;-82
2022/08/26 06:52:33;;;;;;;8.15;2.83;;;;;;;;;;4996055;28;20053;-83
2022/08/26 06:54:59;;;;;;;11.00;2.40;;;;;;;;;;5012718;28;20100;-82
2022/08/26 06:57:25;;;;;;;9.45;2.38;;;;;;;;;;5011748;28;20097;-83
2022/08/26 06:59:51;;;;;;;7.15;2.13;;;;;;;;;;5012659;28;20104;-82
2022/08/26 07:02:18;;;;;;;6.40;2.22;;;;;;;;;;4995482;28;20601;-82
2022/08/26 07:04:44;;;;;;;11.32;2.42;;;;;;;;;;4994610;28;20038;-82
2022/08/26 07:07:13;;;;;;;9.50;2.10;;;;;;;;;;5009096;28;20133;-83
2022/08/26 07:09:39;;;;;;;9.38;2.20;;;;;;;;;;5011234;28;20038;-82
2022/08/26 07:12:05;;;;;;;8.18;2.20;;;;;;;;;;4995154;28;20161;-82
2022/08/26 07:14:33;;;;;;;7.32;2.40;;;;;;;;;;4994798;28;20049;-82
2022/08/26 07:17:00;;;;;;;8.48;2.20;;;;;;;;;;4995352;28;20456;-82
2022/08/26 07:19:26;;;;;;;9.32;2.60;;;;;;;;;;5010640;28;20129;-82
2022/08/26 07:21:52;;;;;;;7.60;2.60;;;;;;;;;;5012762;28;20113;-82
2022/08/26 07:24:21;;;;;;;8.30;2.42;;;;;;;;;;5009422;28;20042;-82
2022/08/26 07:26:47;;;;;;;8.38;2.20;;;;;;;;;;5012279;28;20042;-82
2022/08/26 07:29:13;;;;;;;8.40;2.47;;;;;;;;;;5011722;28;20041;-82
2022/08/26 07:31:40;;;;;;;10.75;2.70;;;;;;;;;;4994628;28;20185;-82
2022/08/26 07:34:08;;;;;;;8.18;1.95;;;;;;;;;;4993241;28;20092;-82
2022/08/26 07:36:34;;;;;;;10.07;2.63;;;;;;;;;;4994518;28;20125;-82
2022/08/26 07:39:00;;;;;;;7.47;2.13;;;;;;;;;;4970828;28;20133;-82
2022/08/26 07:41:26;;;;;;;6.60;2.05;;;;;;;;;;4996121;28;20081;-82
2022/08/26 07:43:52;;;;;;;8.25;2.05;;;;;;;;;;5012762;28;20050;-82
2022/08/26 07:46:19;;;;;;;9.27;2.20;;;;;;;;;;5011270;28;20049;-82
2022/08/26 07:48:48;;;;;;;8.50;2.42;;;;;;;;;;4993453;28;20042;-82
2022/08/26 07:51:15;;;;;;;7.10;2.22;;;;;;;;;;5011431;28;20049;-82
2022/08/26 07:53:42;;;;;;;8.48;2.20;;;;;;;;;;4994600;28;20073;-82
2022/08/26 07:56:08;;;;;;;9.98;2.47;;;;;;;;;;5011194;28;20407;-82
2022/08/26 07:58:35;;;;;;;9.05;2.35;;;;;;;;;;5011336;28;20479;-82
2022/08/26 08:01:01;;;;;;;10.65;2.50;;;;;;;;;;5011192;28;20049;-82
2022/08/26 08:03:27;;;;;;;9.98;2.60;;;;;;;;;;4994287;28;20461;-82
2022/08/26 08:05:53;;;;;;;7.63;2.10;;;;;;;;;;5011273;28;20042;-82
2022/08/26 08:08:19;;;;;;;6.75;2.28;;;;;;;;;;5005135;28;20412;-83
2022/08/26 08:10:46;;;;;;;8.63;2.13;;;;;;;;;;4981795;28;20084;-82
2022/08/26 08:13:12;;;;;;;7.78;2.38;;;;;;;;;;4984528;28;20076;-82
2022/08/26 08:15:38;;;;;;;7.63;2.38;;;;;;;;;;4992799;28;20054;-82
2022/08/26 08:18:05;;;;;;;6.18;2.13;;;;;;;;;;5010922;28;20052;-82
2022/08/26 08:20:31;;;;;;;7.47;2.15;;;;;;;;;;4993177;28;20050;-82
2022/08/26 08:22:57;;;;;;;6.60;2.10;;;;;;;;;;4991772;28;20049;-82
2022/08/26 08:25:23;;;;;;;12.90;2.63;;;;;;;;;;4993264;28;20454;-83
2022/08/26 08:27:50;;;;;;;10.30;2.55;;;;;;;;;;4993937;28;20049;-82
2022/08/26 08:30:18;;;;;;;8.73;2.92;;;;;;;;;;5011434;28;20126;-82
2022/08/26 08:32:44;;;;;;;10.20;2.60;;;;;;;;;;5011424;28;20442;-82
2022/08/26 08:35:12;;;;;;;7.13;2.60;;;;;;;;;;5010399;28;20042;-82
2022/08/26 08:37:38;;;;;;;6.72;2.15;;;;;;;;;;4977474;28;20042;-82
2022/08/26 08:40:06;;;;;;;16.80;2.80;;;;;;;;;;4993550;28;20466;-82
2022/08/26 08:42:41;;;;;;;10.55;3.10;;;;;;;;;;4993838;28;20046;-82
2022/08/26 08:45:10;;;;;;;8.48;2.40;;;;;;;;;;4990585;28;20372;-82
2022/08/26 08:47:49;;;;;;;17.83;3.25;;;;;;;;;;4993798;28;20096;-82
2022/08/26 08:50:23;;;;;;;18.35;3.63;;;;;;;;;;4992548;28;20442;-82
2022/08/26 08:52:58;;;;;;;20.67;3.78;;;;;;;;;;4988508;28;20076;-84
2022/08/26 08:55:27;;;;;;;18.30;4.50;;;;;;;;;;4988306;28;20053;-84
2022/08/26 08:58:05;;;;;;;18.80;4.50;;;;;;;;;;4994197;28;20459;-84
2022/08/26 09:00:37;;;;;;;14.02;3.20;;;;;;;;;;5003421;28;20049;-85
2022/08/26 09:03:06;;;;;;;18.00;2.92;;;;;;;;;;5002680;28;20521;-85
2022/08/26 09:05:42;;;;;;;13.20;3.75;;;;;;;;;;4982213;28;20568;-85
2022/08/26 09:08:11;;;;;;;12.02;3.13;;;;;;;;;;4959827;28;20050;-85
2022/08/26 09:10:45;;;;;;;11.25;2.40;;;;;;;;;;4961938;28;20042;-85
2022/08/26 09:13:14;;;;;;;17.85;2.67;;;;;;;;;;4960281;28;20449;-88
2022/08/26 09:15:59;;;;;;;11.20;2.75;;;;;;;;;;4963206;28;20046;-87
2022/08/26 09:18:39;;;;;;;8.98;2.80;;;;;;;;;;4951448;28;20488;-87
2022/08/26 09:21:06;;;;;;;12.27;2.38;;;;;;;;;;4966707;28;20043;-85
2022/08/26 09:23:34;;;;;;;16.25;3.10;;;;;;;;;;4952130;28;20480;-85
2022/08/26 09:26:12;;;;;;;6.85;2.33;;;;;;;;;;4951583;28;20046;-85
2022/08/26 09:28:41;;;;;;;9.55;2.78;;;;;;;;;;4955264;28;20404;-85
2022/08/26 09:31:10;;;;;;;9.05;2.28;;;;;;;;;;4969753;28;20377;-85
2022/08/26 09:33:37;;;;;;;8.52;2.40;;;;;;;;;;4963599;28;20083;-85
2022/08/26 09:36:13;;;;;;;9.15;2.50;;;;;;;;;;4951454;28;20055;-85
2022/08/26 09:38:40;;;;;;;8.77;3.00;;;;;;;;;;4955403;28;20101;-85
2022/08/26 09:41:18;;;;;;;9.25;2.50;;;;;;;;;;4971624;28;20181;-88
2022/08/26 09:43:55;;;;;;;7.60;2.30;;;;;;;;;;4969608;28;20412;-84
2022/08/26 09:46:26;;;;;;;6.60;2.20;;;;;;;;;;4957856;28;20087;-83
2022/08/26 09:48:52;;;;;;;10.70;2.50;;;;;;;;;;4960128;28;20039;-86
2022/08/26 09:51:26;;;;;;;12.73;2.72;;;;;;;;;;4956262;28;20062;-84
2022/08/26 09:53:54;;;;;;;12.55;2.63;;;;;;;;;;4957051;28;20122;-84
2022/08/26 09:56:22;;;;;;;4.82;2.30;;;;;;;;;;4958171;28;20503;-85
2022/08/26 09:58:49;;;;;;;8.77;2.55;;;;;;;;;;4958831;28;20046;-85
2022/08/26 10:01:25;;;;;;;10.05;2.45;;;;;;;;;;4952730;28;20039;-83
2022/08/26 10:03:51;;;;;;;7.82;2.42;;;;;;;;;;4965255;28;20059;-84
2022/08/26 10:06:18;;;;;;;11.90;2.53;;;;;;;;;;4953470;28;20039;-84
2022/08/26 10:08:50;;;;;;;7.40;2.30;;;;;;;;;;4954446;29;20102;-83
2022/08/26 10:11:39;;;;;;;11.05;2.72;;;;;;;;;;4963373;28;20053;-83
2022/08/26 10:14:08;;;;;;;9.35;2.50;;;;;;;;;;4972435;28;20404;-83
2022/08/26 10:16:38;;;;;;;9.43;2.83;;;;;;;;;;4972053;28;20047;-83
2022/08/26 10:19:09;;;;;;;5.68;2.28;;;;;;;;;;4971025;28;20081;-84
2022/08/26 10:21:38;;;;;;;8.98;2.20;;;;;;;;;;4972427;28;20042;-83
2022/08/26 10:24:06;;;;;;;7.57;2.20;;;;;;;;;;4973832;28;20050;-83
2022/08/26 10:26:32;;;;;;;5.78;1.85;;;;;;;;;;4965995;28;20046;-83
2022/08/26 10:29:10;;;;;;;6.15;2.33;;;;;;;;;;4938155;29;20159;-83
2022/08/26 10:31:36;;;;;;;7.65;2.70;;;;;;;;;;4955703;28;20493;-83
2022/08/26 10:34:02;;;;;;;10.05;2.42;;;;;;;;;;4958800;28;20050;-83
2022/08/26 10:36:48;;;;;;;5.38;1.98;;;;;;;;;;4960089;28;20054;-83
2022/08/26 10:39:21;;;;;;;6.55;2.25;;;;;;;;;;4960302;28;20145;-83
2022/08/26 10:41:49;;;;;;;5.80;2.22;;;;;;;;;;4959274;28;20378;-83
2022/08/26 10:44:17;;;;;;;6.65;2.90;;;;;;;;;;4961227;28;20047;-83
2022/08/26 10:46:51;;;;;;;7.43;2.70;;;;;;;;;;4968761;28;20134;-83
2022/08/26 10:49:18;;;;;;;5.55;2.40;;;;;;;;;;4954717;28;20054;-83
2022/08/26 10:51:46;;;;;;;6.30;2.65;;;;;;;;;;4955302;28;20097;-83
2022/08/26 10:54:12;;;;;;;16.20;3.10;;;;;;;;;;4954872;28;20062;-83
2022/08/26 10:56:57;;;;;;;7.10;2.72;;;;;;;;;;4961418;28;20050;-82
2022/08/26 10:59:42;;;;;;;6.32;3.35;;;;;;;;;;4973392;28;20047;-83
2022/08/26 11:02:17;;;;;;;5.95;2.80;;;;;;;;;;4971500;28;20524;-83
2022/08/26 11:04:47;;;;;;;7.25;2.10;;;;;;;;;;4974155;28;20444;-83
2022/08/26 11:07:29;;;;;;;6.00;2.20;;;;;;;;;;4969320;28;20047;-83
2022/08/26 11:09:57;;;;;;;4.95;2.53;;;;;;;;;;4972652;28;20160;-83
2022/08/26 11:12:35;;;;;;;6.30;2.28;;;;;;;;;;4974099;28;20504;-83
2022/08/26 11:15:33;;;;;;;5.18;1.80;;;;;;;;;;4972357;28;20057;-83
2022/08/26 11:18:02;;;;;;;3.38;1.80;;;;;;;;;;4900094;29;20055;-83
2022/08/26 11:20:31;;;;;;;7.20;2.40;;;;;;;;;;4916569;29;20066;-82
2022/08/26 11:23:17;;;;;;;10.15;2.40;;;;;;;;;;4917193;29;20127;-83
2022/08/26 11:25:43;;;;;;;;;;;;;;;;;;4917553;29;20052;-83
2022/08/26 11:28:09;;;;;;;6.25;2.40;;;;;;;;;;4914021;29;19927;-83
2022/08/26 11:30:37;;;;;;;10.38;2.53;;;;;;;;;;4898397;29;20044;-83
2022/08/26 11:33:04;;;;;;;7.05;2.22;;;;;;;;;;4913661;29;20044;-83
2022/08/26 11:35:37;;;;;;;8.95;2.60;;;;;;;;;;4912947;29;20052;-82
2022/08/26 11:38:04;;;;;;;7.32;2.70;;;;;;;;;;4914663;29;20139;-82
2022/08/26 11:40:33;;;;;;;7.00;2.30;;;;;;;;;;4897572;29;20445;-83
2022/08/26 11:43:02;;;;;;;7.03;2.53;;;;;;;;;;4919148;29;20355;-83
2022/08/26 11:45:31;;;;;;;5.20;2.22;;;;;;;;;;4932247;29;20043;-82
2022/08/26 11:47:57;;;;;;;7.22;2.50;;;;;;;;;;4931530;29;20052;-82
2022/08/26 11:50:25;;;;;;;6.05;2.35;;;;;;;;;;4919122;29;20048;-83
2022/08/26 11:52:54;;;;;;;4.72;2.30;;;;;;;;;;4921992;29;20066;-82
2022/08/26 11:55:20;;;;;;;6.57;2.20;;;;;;;;;;4952265;28;20497;-82
2022/08/26 11:57:52;;;;;;;11.77;2.92;;;;;;;;;;4966015;28;20400;-82
2022/08/26 12:00:23;;;;;;;9.15;2.90;;;;;;;;;;4971266;28;20127;-83
2022/08/26 12:02:50;;;;;;;7.80;2.40;;;;;;;;;;4962643;28;20480;-82
2022/08/26 12:05:20;;;;;;;7.25;2.20;;;;;;;;;;4953373;28;20084;-82
2022/08/26 12:07:49;;;;;;;6.82;2.28;;;;;;;;;;4966330;28;20106;-83
2022/08/26 12:10:29;;;;;;;6.47;2.10;;;;;;;;;;4967992;28;20134;-82
2022/08/26 12:12:57;;;;;;;6.60;2.42;;;;;;;;;;4953440;28;20473;-82
2022/08/26 12:15:24;;;;;;;5.07;1.95;;;;;;;;;;4953515;29;20050;-82
2022/08/26 12:17:50;;;;;;;9.38;2.47;;;;;;;;;;4967409;28;20126;-83
2022/08/26 12:20:18;;;;;;;5.95;2.40;;;;;;;;;;4970952;28;20042;-82
2022/08/26 12:22:44;;;;;;;7.00;2.60;;;;;;;;;;4970146;28;20051;-82
2022/08/26 12:25:10;;;;;;;7.25;2.47;;;;;;;;;;4952203;28;20047;-82
2022/08/26 12:27:39;;;;;;;8.85;2.67;;;;;;;;;;4962946;28;20054;-82
2022/08/26 12:30:10;;;;;;;4.05;2.10;;;;;;;;;;4970712;28;20217;-82
2022/08/26 12:32:38;;;;;;;6.82;3.03;;;;;;;;;;4972408;28;20576;-82
2022/08/26 12:35:07;;;;;;;7.57;3.08;;;;;;;;;;4966895;28;20497;-86
2022/08/26 12:37:34;;;;;;;6.80;2.65;;;;;;;;;;4957415;28;20047;-82
2022/08/26 12:40:19;;;;;;;4.95;2.50;;;;;;;;;;4960998;28;20061;-82
2022/08/26 12:42:45;;;;;;;5.97;2.60;;;;;;;;;;4955627;28;20059;-82
2022/08/26 12:45:11;;;;;;;8.40;2.90;;;;;;;;;;4969350;28;20042;-82
2022/08/26 12:47:41;;;;;;;7.45;2.50;;;;;;;;;;4970326;28;20053;-82
2022/08/26 12:50:26;;;;;;;6.50;2.47;;;;;;;;;;4971153;28;20043;-82
2022/08/26 12:53:01;;;;;;;10.05;2.60;;;;;;;;;;4969470;28;20122;-82
2022/08/26 12:55:53;;;;;;;6.40;2.47;;;;;;;;;;4962021;28;20050;-82
2022/08/26 12:58:25;;;;;;;6.00;2.80;;;;;;;;;;4970572;28;20047;-82
2022/08/26 13:00:54;;;;;;;4.82;2.20;;;;;;;;;;4971066;28;20059;-82
2022/08/26 13:03:47;;;;;;;5.45;2.20;;;;;;;;;;4970677;28;20046;-82
2022/08/26 13:06:16;;;;;;;8.57;3.83;;;;;;;;;;4949291;28;20051;-82
2022/08/26 13:08:43;;;;;;;4.55;2.25;;;;;;;;;;4953313;28;20055;-82
2022/08/26 13:11:11;;;;;;;4.25;1.92;;;;;;;;;;4953095;28;20501;-82
2022/08/26 13:13:39;;;;;;;9.80;2.03;;;;;;;;;;4951039;28;20047;-82
2022/08/26 13:16:05;;;;;;;8.75;2.30;;;;;;;;;;4956286;28;20047;-82
2022/08/26 13:18:31;;;;;;;8.25;2.33;;;;;;;;;;4955661;28;20455;-82
2022/08/26 13:20:57;;;;;;;7.60;2.10;;;;;;;;;;4952415;28;20066;-82
2022/08/26 13:23:24;;;;;;;6.45;2.13;;;;;;;;;;4951949;28;20055;-82
2022/08/26 13:25:51;;;;;;;7.95;2.30;;;;;;;;;;4952979;28;20070;-82
2022/08/26 13:28:17;;;;;;;10.18;2.20;;;;;;;;;;4958818;28;20105;-82
2022/08/26 13:30:45;;;;;;;5.45;1.90;;;;;;;;;;4971201;28;20042;-82
2022/08/26 13:33:11;;;;;;;4.72;2.55;;;;;;;;;;4957190;28;20051;-83
2022/08/26 13:35:37;;;;;;;5.05;2.25;;;;;;;;;;4974309;28;20054;-82
2022/08/26 13:38:03;;;;;;;5.43;2.25;;;;;;;;;;4964812;28;20100;-81
2022/08/26 13:40:30;;;;;;;6.70;2.35;;;;;;;;;;4975600;28;20493;-82
2022/08/26 13:42:56;;;;;;;5.85;2.47;;;;;;;;;;4974543;28;20047;-82
2022/08/26 13:45:22;;;;;;;5.93;2.15;;;;;;;;;;4974137;28;20073;-82
2022/08/26 13:47:48;;;;;;;7.07;2.13;;;;;;;;;;4972911;28;20038;-82
2022/08/26 13:50:14;;;;;;;4.57;1.92;;;;;;;;;;4955533;29;20405;-82
2022/08/26 13:52:40;;;;;;;5.28;2.30;;;;;;;;;;4956352;29;20035;-82
2022/08/26 13:55:06;;;;;;;7.57;2.75;;;;;;;;;;4955988;29;20043;-84
2022/08/26 13:57:32;;;;;;;8.88;2.17;;;;;;;;;;4969717;28;20534;-83
2022/08/26 13:59:59;;;;;;;6.20;2.42;;;;;;;;;;4975488;28;20066;-83
2022/08/26 14:02:25;;;;;;;5.78;2.38;;;;;;;;;;4975470;28;20259;-83
2022/08/26 14:04:53;;;;;;;5.20;2.10;;;;;;;;;;4947057;29;20129;-90
2022/08/26 14:07:19;;;;;;;6.55;2.00;;;;;;;;;;4954888;28;20137;-90
2022/08/26 14:09:45;;;;;;;7.30;2.85;;;;;;;;;;4962294;28;20082;-83
2022/08/26 14:12:11;;;;;;;4.93;2.00;;;;;;;;;;4963797;28;20137;-82
2022/08/26 14:14:37;;;;;;;10.25;2.40;;;;;;;;;;4963229;28;20050;-83
2022/08/26 14:17:03;;;;;;;4.88;2.05;;;;;;;;;;4968335;28;20039;-82
2022/08/26 14:19:30;;;;;;;5.53;1.98;;;;;;;;;;4956639;28;20051;-83
2022/08/26 14:21:56;;;;;;;4.78;2.15;;;;;;;;;;4964017;28;20058;-83
2022/08/26 14:24:22;;;;;;;4.93;1.85;;;;;;;;;;4973255;28;20050;-83
2022/08/26 14:26:48;;;;;;;5.38;1.90;;;;;;;;;;4965710;28;20051;-82
2022/08/26 14:29:14;;;;;;;6.93;2.00;;;;;;;;;;4974419;28;20050;-82
2022/08/26 14:31:41;;;;;;;7.07;2.17;;;;;;;;;;4958012;28;20599;-83
2022/08/26 14:34:08;;;;;;;6.57;2.33;;;;;;;;;;4969537;28;20766;-87
2022/08/26 14:36:34;;;;;;;4.15;1.92;;;;;;;;;;4960468;28;20074;-82
2022/08/26 14:39:05;;;;;;;5.72;2.40;;;;;;;;;;4962294;28;20059;-82
2022/08/26 14:41:31;;;;;;;5.53;2.03;;;;;;;;;;4970425;28;20055;-82
2022/08/26 14:44:03;;;;;;;5.28;2.05;;;;;;;;;;4962729;28;20133;-82
2022/08/26 14:46:30;;;;;;;5.70;1.92;;;;;;;;;;4972249;28;20050;-81
2022/08/26 14:48:57;;;;;;;5.80;2.10;;;;;;;;;;4961357;28;20050;-82
2022/08/26 14:51:23;;;;;;;6.03;2.35;;;;;;;;;;4956832;28;20583;-82
2022/08/26 14:56:36;;;;;;;5.38;2.05;;;;;;;;;;4965611;28;20047;-82
2022/08/26 14:59:02;;;;;;;7.47;2.00;;;;;;;;;;4959391;28;20054;-82
2022/08/26 15:01:30;;;;;;;9.50;2.40;;;;;;;;;;4967286;28;20449;-82
2022/08/26 15:03:56;;;;;;;4.38;2.05;;;;;;;;;;4957077;28;20055;-82
2022/08/26 15:06:23;;;;;;;9.07;2.30;;;;;;;;;;4960038;28;20050;-81
2022/08/26 15:08:49;;;;;;;6.15;2.25;;;;;;;;;;4973803;28;20121;-81
2022/08/26 15:11:17;;;;;;;5.22;1.90;;;;;;;;;;4961799;28;20401;-81
2022/08/26 15:13:44;;;;;;;6.03;2.40;;;;;;;;;;4955175;28;20166;-81
2022/08/26 15:16:10;;;;;;;6.47;2.70;;;;;;;;;;4954599;28;20047;-81
2022/08/26 15:18:36;;;;;;;7.13;2.08;;;;;;;;;;4969213;28;20507;-81
2022/08/26 15:21:06;;;;;;;4.22;2.60;;;;;;;;;;4951538;28;20097;-81
2022/08/26 15:23:32;;;;;;;4.70;2.20;;;;;;;;;;4953902;28;20047;-81